Soleil Weather Down

Nearby METAR Reports

 

KCNI - Canton/Cherokee, Georgia, USA
Distance from station: ENE 6mi, 10km
Updated: Sat, 20-Oct-2018 6:10am EDT
Overcast
Overcast
 Wind from calm
Wind: Calm
Temperature: 61°F , 16°C
Dew Point: 57°F , 14°C
Humidity: 88%
Barometer: 30.03 inHg , 1016.9 hPa
Clouds: Overcast
Visibility: 10 miles , 16 km
Cloud details: Overcast 700 ft
2018/10/20 10:10 KCNI 201010Z AUTO 00000KT 10SM OVC007 16/14 A3003 RMK AO2
KRYY - Marietta Mccolum, Georgia, USA
Distance from station: SSW 18mi, 29km
Updated: Sat, 20-Oct-2018 5:48am EDT
Overcast
Overcast
 Wind from SSW
Wind: SSW 3 mph , 6 km/h
Temperature: 63°F , 17°C
Dew Point: 59°F , 15°C
Humidity: 88%
Barometer: 30.03 inHg , 1016.9 hPa
Clouds: Overcast
Visibility: 10 miles , 16 km
Cloud details: Few Clouds 3700 ft
Mostly cloudy 5000 ft
Overcast 8500 ft
2018/10/20 09:48 KRYY 200948Z AUTO 21003KT 10SM FEW037 BKN050 OVC085 17/15 A3003 RMK AO2 SLP891 T01670150
KVPC - Cartersville, Georgia, USA
Distance from station: WSW 22mi, 35km
Updated: Sat, 20-Oct-2018 5:53am EDT
Overcast
Overcast
 Wind from calm
Wind: Calm
Temperature: 61°F , 16°C
Dew Point: 59°F , 15°C
Humidity: 94%
Barometer: 30.02 inHg , 1016.6 hPa
Clouds: Overcast
Visibility: 10 miles , 16 km
Cloud details: Overcast 4300 ft
2018/10/20 09:53 KVPC 200953Z AUTO 00000KT 10SM OVC043 16/15 A3002 RMK AO2 SLP157 T01560150
 
KMGE - Dobbins Afb/Mari, Georgia, USA
Distance from station: S 24mi, 39km
Updated: Sat, 20-Oct-2018 5:56am EDT
Few Clouds
Few Clouds
 Wind from calm
Wind: Calm
Temperature: 63°F , 17°C
Dew Point: 59°F , 15°C
Humidity: 88%
Barometer: 30.02 inHg , 1016.6 hPa
Clouds: Few Clouds
Visibility: 10 miles , 16 km
Cloud details: Few Clouds 6000 ft
2018/10/20 09:56 KMGE 200956Z AUTO 00000KT 10SM FEW060 17/15 A3002 RMK AO2 SLPNO T01670150 $
KPDK - Peachtree/Dekalb, Georgia, USA
Distance from station: SSE 29mi, 47km
Updated: Sat, 20-Oct-2018 5:53am EDT
Mostly cloudy
Mostly cloudy
 Wind from SW
Wind: SW 9 mph , 15 km/h
Temperature: 63°F , 17°C
Dew Point: 61°F , 16°C
Humidity: 94%
Barometer: 30.02 inHg , 1016.6 hPa
Clouds: Mostly cloudy
Visibility: 9 miles , 14 km
Cloud details: Few Clouds 1200 ft
Mostly cloudy 8500 ft
Mostly cloudy 12000 ft
2018/10/20 09:53 KPDK 200953Z AUTO 22008KT 9SM FEW012 BKN085 BKN120 17/16 A3002 RMK AO2 SLP160 T01670156
KFTY - Atlanta/Fulton, Georgia, USA
Distance from station: S 34mi, 54km
Updated: Sat, 20-Oct-2018 5:53am EDT
Overcast
Overcast
 Wind from SW
Wind: SW 5 mph , 7 km/h
Temperature: 61°F , 16°C
Dew Point: 59°F , 15°C
Humidity: 94%
Barometer: 30.03 inHg , 1016.9 hPa
Clouds: Overcast
Visibility: 10 miles , 16 km
Cloud details: Partly cloudy 7000 ft
Overcast 10000 ft
2018/10/20 09:53 KFTY 200953Z 22004KT 10SM SCT070 OVC100 16/15 A3003 RMK AO2 SLP163 T01610150
 
KPUJ - Atlanta/Paulding, Georgia, USA
Distance from station: SW 34mi, 55km
Updated: Sat, 20-Oct-2018 6:35am EDT
Partly cloudy
Partly cloudy
 Wind from WSW
Wind: WSW 5 mph , 7 km/h
Temperature: 63°F , 17°C
Dew Point: 63°F , 17°C
Humidity: 100%
Barometer: 30.02 inHg , 1016.6 hPa
Clouds: Partly cloudy
Visibility: 7 miles , 11 km
Cloud details: Partly cloudy 3500 ft
Partly cloudy 4200 ft
2018/10/20 10:35 KPUJ 201035Z AUTO 24004KT 7SM SCT035 SCT042 17/17 A3002 RMK AO2
KDNN - Dalton, Georgia, USA
Distance from station: NW 37mi, 59km
Updated: Sat, 20-Oct-2018 6:35am EDT
Drizzle, Overcast
Drizzle, Overcast
 Wind from NW
Wind: NW 3 mph , 6 km/h
Temperature: 61°F , 16°C
Dew Point: 59°F , 15°C
Humidity: 94%
Barometer: 30.05 inHg , 1017.6 hPa
Summary: Drizzle
Clouds: Overcast
Visibility: 7 miles , 11 km
Cloud details: Mostly cloudy 900 ft
Overcast 3700 ft
2018/10/20 10:35 KDNN 201035Z AUTO 32003KT 7SM DZ BKN009 OVC037 16/15 A3005 RMK AO2
KLZU - Lawrenceville, Georgia, USA
Distance from station: ESE 37mi, 59km
Updated: Sat, 20-Oct-2018 5:56am EDT
Overcast
Overcast
 Wind from WSW
Wind: WSW 7 mph , 11 km/h
Temperature: 63°F , 17°C
Dew Point: 59°F , 15°C
Humidity: 88%
Clouds: Overcast
Visibility: 10 miles , 16 km
Cloud details: Overcast 1100 ft
2018/10/20 09:56 KLZU 200956Z AUTO 24006KT 10SM OVC011 17/15 RMK AO2 SLPNO T01670150 $
 
KRMG - Rome, Georgia, USA
Distance from station: W 38mi, 61km
Updated: Sat, 20-Oct-2018 5:53am EDT
Overcast
Overcast
 Wind from N
Wind: N 5 mph , 7 km/h
Temperature: 63°F , 17°C
Dew Point: 59°F , 15°C
Humidity: 88%
Barometer: 30.02 inHg , 1016.6 hPa
Clouds: Overcast
Visibility: 9 miles , 14 km
Cloud details: Few Clouds 400 ft
Few Clouds 1000 ft
Overcast 3800 ft
2018/10/20 09:53 KRMG 200953Z AUTO 36004KT 9SM FEW004 FEW010 OVC038 17/15 A3002 RMK AO2 RAB06E38 SLP157 P0001 T01670150
KGVL - Gainesville, Georgia, USA
Distance from station: E 39mi, 62km
Updated: Sat, 20-Oct-2018 6:19am EDT
Overcast
Overcast
 Wind from W
Wind: W 7 mph , 11 km/h
Temperature: 63°F , 17°C
Dew Point: 63°F , 17°C
Humidity: 100%
Barometer: 30.03 inHg , 1016.9 hPa
Clouds: Overcast
Visibility: 10 miles , 16 km
Cloud details: Overcast 800 ft
2018/10/20 10:19 KGVL 201019Z AUTO 28006KT 10SM OVC008 17/17 A3003 RMK AO2 T01720167
KATL - Atlanta, Georgia, USA
Distance from station: S 44mi, 71km
Updated: Sat, 20-Oct-2018 5:52am EDT
Overcast
Overcast
 Wind from WSW
Wind: WSW 6 mph , 9 km/h
Temperature: 63°F , 17°C
Dew Point: 59°F , 15°C
Humidity: 88%
Barometer: 30.03 inHg , 1016.9 hPa
Clouds: Overcast
Visibility: 10 miles , 16 km
Cloud details: Few Clouds 1000 ft
Overcast 9500 ft
2018/10/20 09:52 KATL 200952Z 24005KT 10SM FEW010 OVC095 17/15 A3003 RMK AO2 SLP164 T01720150